createdAt,value
2023-05-12T00:00:28.449Z,85.10
2023-05-12T00:02:56.711Z,85.00
2023-05-12T00:05:25.000Z,84.90
2023-05-12T00:07:53.097Z,84.90
2023-05-12T00:10:22.578Z,85.00
2023-05-12T00:12:50.779Z,85.00
2023-05-12T00:15:19.823Z,85.00
2023-05-12T00:17:47.949Z,84.90
2023-05-12T00:20:16.293Z,84.80
2023-05-12T00:22:44.421Z,84.80
2023-05-12T00:25:12.524Z,84.70
2023-05-12T00:27:42.045Z,84.50
2023-05-12T00:30:11.630Z,84.50
2023-05-12T00:32:39.760Z,84.60
2023-05-12T00:35:08.487Z,84.50
2023-05-12T00:37:36.676Z,84.50
2023-05-12T00:40:05.301Z,84.50
2023-05-12T00:42:35.387Z,84.50
2023-05-12T00:45:05.719Z,84.40
2023-05-12T00:47:34.517Z,84.50
2023-05-12T00:50:06.738Z,84.40
2023-05-12T00:52:35.133Z,84.30
2023-05-12T00:55:05.184Z,84.40
2023-05-12T00:57:34.605Z,84.40
2023-05-12T01:00:04.985Z,84.30
2023-05-12T01:02:33.309Z,84.30
2023-05-12T01:05:01.601Z,84.20
2023-05-12T01:07:33.433Z,84.20
2023-05-12T01:10:01.663Z,84.20
2023-05-12T01:12:32.308Z,84.20
2023-05-12T01:15:01.080Z,84.30
2023-05-12T01:17:34.331Z,84.30
2023-05-12T01:20:03.808Z,84.40
2023-05-12T01:22:34.788Z,84.50
2023-05-12T01:25:05.420Z,84.30
2023-05-12T01:27:35.833Z,85.00
2023-05-12T01:30:05.984Z,84.50
2023-05-12T01:32:34.319Z,84.60
2023-05-12T01:35:02.491Z,84.60
2023-05-12T01:37:30.574Z,84.70
2023-05-12T01:39:58.634Z,84.90
2023-05-12T01:42:26.816Z,84.90
2023-05-12T01:44:56.300Z,84.90
2023-05-12T01:47:24.399Z,84.90
2023-05-12T01:49:54.351Z,84.90
2023-05-12T01:52:22.519Z,84.70
2023-05-12T01:54:51.405Z,84.80
2023-05-12T01:57:19.622Z,84.70
2023-05-12T01:59:47.747Z,84.80
2023-05-12T02:02:17.299Z,84.80
2023-05-12T02:04:45.469Z,84.90
2023-05-12T02:07:15.617Z,85.00
2023-05-12T02:09:43.773Z,85.10
2023-05-12T02:12:11.836Z,85.20
2023-05-12T02:14:39.924Z,85.40
2023-05-12T02:17:08.036Z,85.60
2023-05-12T02:19:37.579Z,85.60
2023-05-12T02:22:06.073Z,85.70
2023-05-12T02:24:34.136Z,85.70
2023-05-12T02:27:02.420Z,85.80
2023-05-12T02:29:30.563Z,85.80
2023-05-12T02:31:59.679Z,85.80
2023-05-12T02:34:27.860Z,85.80
2023-05-12T02:36:57.393Z,85.80
2023-05-12T02:39:25.484Z,85.80
2023-05-12T02:41:53.607Z,85.80
2023-05-12T02:44:22.434Z,85.70
2023-05-12T02:46:50.516Z,85.70
2023-05-12T02:49:18.597Z,85.70
2023-05-12T02:51:48.522Z,85.80
2023-05-12T02:54:18.223Z,85.90
2023-05-12T02:56:46.369Z,85.80
2023-05-12T02:59:14.466Z,85.80
2023-05-12T03:01:42.797Z,85.90
2023-05-12T03:04:10.968Z,86.00
2023-05-12T03:06:39.088Z,86.20
2023-05-12T03:09:07.247Z,86.20
2023-05-12T03:11:36.773Z,86.20
2023-05-12T03:14:04.891Z,86.30
2023-05-12T03:16:33.109Z,86.20
2023-05-12T03:19:01.323Z,86.20
2023-05-12T03:21:29.824Z,86.20
2023-05-12T03:23:58.046Z,86.30
2023-05-12T03:26:26.184Z,86.40
2023-05-12T03:28:55.813Z,86.50
2023-05-12T03:31:24.114Z,86.50
2023-05-12T03:33:52.244Z,86.40
2023-05-12T03:36:20.384Z,86.30
2023-05-12T03:38:48.600Z,86.30
2023-05-12T03:41:18.295Z,86.30
2023-05-12T03:43:46.576Z,86.50
2023-05-12T03:46:16.312Z,86.30
2023-05-12T03:48:44.463Z,86.40
2023-05-12T03:51:12.592Z,86.30
2023-05-12T03:53:45.108Z,86.40
2023-05-12T03:56:13.311Z,86.50
2023-05-12T03:58:41.392Z,86.40
2023-05-12T04:01:09.528Z,86.50
2023-05-12T04:03:41.709Z,86.50
2023-05-12T04:06:10.609Z,86.50
2023-05-12T04:08:41.710Z,86.50
2023-05-12T04:11:10.753Z,86.40
2023-05-12T04:13:38.871Z,86.40
2023-05-12T04:16:07.454Z,86.50
2023-05-12T04:18:36.824Z,86.50
2023-05-12T04:21:06.493Z,86.50
2023-05-12T04:23:34.609Z,86.60
2023-05-12T04:26:05.219Z,86.60
2023-05-12T04:28:33.469Z,86.70
2023-05-12T04:31:04.498Z,86.80
2023-05-12T04:33:32.771Z,86.90
2023-05-12T04:36:00.926Z,86.90
2023-05-12T04:38:30.537Z,86.90
2023-05-12T04:41:01.626Z,87.00
2023-05-12T04:46:01.487Z,86.80
2023-05-12T04:48:30.023Z,87.00
2023-05-12T04:51:00.180Z,87.00
2023-05-12T04:53:28.645Z,87.20
2023-05-12T04:55:58.132Z,87.20
2023-05-12T04:58:26.196Z,87.40
2023-05-12T05:00:54.535Z,87.40
2023-05-12T05:03:23.440Z,88.10
2023-05-12T05:05:51.622Z,87.50
2023-05-12T05:08:19.786Z,87.40
2023-05-12T05:10:48.063Z,87.50
2023-05-12T05:13:17.740Z,87.40
2023-05-12T05:15:51.569Z,87.50
2023-05-12T05:18:23.147Z,87.50
2023-05-12T05:20:57.674Z,87.40
2023-05-12T05:23:26.982Z,87.40
2023-05-12T05:25:55.112Z,87.40
2023-05-12T05:28:24.821Z,87.40
2023-05-12T05:30:52.968Z,87.40
2023-05-12T05:33:21.382Z,87.40
2023-05-12T05:35:49.632Z,87.40
2023-05-12T05:38:17.897Z,87.30
2023-05-12T05:40:53.045Z,87.40
2023-05-12T05:43:22.100Z,87.50
2023-05-12T05:45:53.463Z,87.50
2023-05-12T05:48:21.838Z,87.50
2023-05-12T05:50:51.347Z,87.50
2023-05-12T05:53:19.654Z,87.50
2023-05-12T05:55:48.564Z,87.50
2023-05-12T05:58:16.923Z,87.40
2023-05-12T06:00:45.227Z,87.30
2023-05-12T06:03:14.888Z,87.20
2023-05-12T06:05:43.990Z,87.30
2023-05-12T06:08:13.494Z,87.10
2023-05-12T06:10:42.130Z,87.10
2023-05-12T06:13:10.310Z,87.10
2023-05-12T06:15:38.623Z,87.00
2023-05-12T06:18:07.003Z,87.00
2023-05-12T06:20:36.587Z,86.90
2023-05-12T06:23:04.826Z,87.00
2023-05-12T06:25:33.700Z,87.00
2023-05-12T06:28:01.807Z,87.00
2023-05-12T06:30:29.909Z,86.90
2023-05-12T06:32:58.060Z,86.80
2023-05-12T06:35:26.370Z,86.80
2023-05-12T06:37:55.806Z,86.60
2023-05-12T06:40:24.219Z,86.60
2023-05-12T06:42:52.303Z,86.60
2023-05-12T06:45:21.321Z,86.50
2023-05-12T06:47:49.910Z,86.30
2023-05-12T06:50:19.065Z,86.30
2023-05-12T06:52:47.335Z,86.30
2023-05-12T06:55:19.887Z,86.30
2023-05-12T06:57:48.481Z,86.30
2023-05-12T07:00:17.102Z,86.20
2023-05-12T07:02:45.353Z,86.30
2023-05-12T07:05:13.753Z,86.20
2023-05-12T07:07:41.894Z,86.10
2023-05-12T07:10:10.790Z,86.10
2023-05-12T07:12:40.314Z,86.10
2023-05-12T07:15:09.704Z,85.90
2023-05-12T07:17:37.925Z,85.80
2023-05-12T07:20:07.164Z,86.00
2023-05-12T07:22:37.920Z,86.20
2023-05-12T07:25:08.023Z,86.20
2023-05-12T07:27:36.252Z,86.00
2023-05-12T07:30:06.893Z,85.80
2023-05-12T07:32:35.299Z,85.80
2023-05-12T07:35:03.699Z,85.80
2023-05-12T07:37:31.813Z,85.80
2023-05-12T07:39:59.979Z,85.50
2023-05-12T07:42:28.167Z,85.40
2023-05-12T07:44:56.270Z,85.20
2023-05-12T07:47:25.885Z,84.80
2023-05-12T07:49:54.003Z,84.50
2023-05-12T07:52:22.100Z,84.60
2023-05-12T07:54:50.238Z,84.50
2023-05-12T07:57:18.368Z,84.80
2023-05-12T07:59:46.484Z,85.00
2023-05-12T08:02:14.662Z,84.80
2023-05-12T08:04:44.608Z,84.90
2023-05-12T08:07:12.858Z,85.00
2023-05-12T08:09:41.109Z,84.70
2023-05-12T08:12:09.552Z,84.50
2023-05-12T08:14:38.061Z,84.20
2023-05-12T08:17:06.818Z,84.20
2023-05-12T08:19:34.980Z,84.10
2023-05-12T08:22:05.095Z,84.30
2023-05-12T08:24:33.254Z,84.60
2023-05-12T08:27:01.378Z,84.50
2023-05-12T08:29:29.959Z,84.40
2023-05-12T08:31:59.026Z,84.20
2023-05-12T08:34:27.419Z,84.10
2023-05-12T08:36:56.212Z,83.80
2023-05-12T08:39:25.751Z,83.80
2023-05-12T08:41:59.433Z,84.00
2023-05-12T08:44:27.857Z,84.20
2023-05-12T08:46:58.157Z,84.20
2023-05-12T08:49:30.590Z,84.00
2023-05-12T08:52:00.933Z,84.00
2023-05-12T08:54:31.411Z,84.30
2023-05-12T08:59:32.647Z,84.60
2023-05-12T09:02:04.460Z,84.50
2023-05-12T09:04:33.159Z,84.00
2023-05-12T09:07:01.498Z,84.00
2023-05-12T09:09:33.835Z,83.80
2023-05-12T09:12:04.010Z,83.60
2023-05-12T09:14:37.671Z,83.40
2023-05-12T09:17:06.873Z,83.70
2023-05-12T09:19:35.153Z,83.60
2023-05-12T09:22:03.249Z,83.70
2023-05-12T09:24:40.062Z,83.80
2023-05-12T09:27:12.034Z,84.00
2023-05-12T09:29:59.339Z,83.80
2023-05-12T09:32:36.039Z,83.70
2023-05-12T09:35:06.422Z,83.20
2023-05-12T09:37:36.112Z,83.20
2023-05-12T09:40:08.786Z,83.30
2023-05-12T09:42:37.497Z,83.30
2023-05-12T09:45:06.458Z,82.80
2023-05-12T09:47:38.848Z,82.00
2023-05-12T09:50:10.131Z,81.70
2023-05-12T09:52:39.964Z,81.90
2023-05-12T09:55:12.896Z,81.30
2023-05-12T09:57:42.674Z,80.20
2023-05-12T10:00:31.184Z,80.60
2023-05-12T10:03:05.673Z,80.70
2023-05-12T10:05:34.840Z,80.80
2023-05-12T10:08:08.492Z,81.00
2023-05-12T10:10:38.751Z,80.90
2023-05-12T10:13:07.286Z,80.50
2023-05-12T10:15:36.785Z,80.50
2023-05-12T10:18:05.046Z,79.50
2023-05-12T10:20:33.902Z,80.30
2023-05-12T10:23:03.135Z,79.90
2023-05-12T10:25:34.209Z,79.60
2023-05-12T10:28:05.234Z,79.20
2023-05-12T10:30:33.737Z,78.90
2023-05-12T10:33:02.836Z,79.10
2023-05-12T10:35:34.907Z,78.80
2023-05-12T10:38:04.744Z,78.10
2023-05-12T10:40:33.063Z,78.20
2023-05-12T10:43:03.980Z,78.20
2023-05-12T10:45:38.495Z,78.20
2023-05-12T10:48:08.297Z,77.40
2023-05-12T10:50:36.608Z,77.80
2023-05-12T10:53:04.743Z,77.40
2023-05-12T10:55:34.897Z,77.70
2023-05-12T10:58:10.584Z,77.70
2023-05-12T11:00:48.724Z,77.60
2023-05-12T11:03:19.942Z,76.90
2023-05-12T11:05:59.345Z,76.60
2023-05-12T11:08:29.140Z,76.50
2023-05-12T11:10:59.077Z,76.00
2023-05-12T11:13:27.791Z,75.60
2023-05-12T11:15:58.260Z,75.40
2023-05-12T11:18:26.654Z,74.50
2023-05-12T11:20:54.810Z,75.00
2023-05-12T11:23:27.307Z,74.90
2023-05-12T11:25:55.699Z,74.50
2023-05-12T11:28:23.994Z,74.60
2023-05-12T11:30:54.996Z,74.90
2023-05-12T11:33:25.096Z,74.10
2023-05-12T11:35:53.229Z,73.60
2023-05-12T11:38:24.421Z,74.20
2023-05-12T11:40:52.633Z,74.00
2023-05-12T11:43:22.487Z,72.80
2023-05-12T11:45:50.706Z,73.00
2023-05-12T11:48:18.924Z,73.50
2023-05-12T11:50:48.682Z,72.40
2023-05-12T11:53:18.746Z,71.80
2023-05-12T11:55:51.009Z,71.30
2023-05-12T11:58:24.426Z,70.60
2023-05-12T12:00:52.673Z,70.00
2023-05-12T12:03:21.337Z,70.60
2023-05-12T12:06:01.478Z,71.10
2023-05-12T12:08:29.864Z,69.90
2023-05-12T12:10:58.165Z,70.30
2023-05-12T12:13:27.242Z,70.70
2023-05-12T12:15:55.361Z,69.30
2023-05-12T12:18:23.540Z,68.20
2023-05-12T12:20:51.708Z,67.70
2023-05-12T12:23:21.130Z,67.70
2023-05-12T12:25:49.208Z,67.10
2023-05-12T12:28:17.352Z,67.40
2023-05-12T12:30:45.482Z,67.00
2023-05-12T12:33:13.652Z,66.60
2023-05-12T12:35:41.868Z,67.10
2023-05-12T12:38:09.976Z,67.40
2023-05-12T12:40:39.784Z,66.90
2023-05-12T12:43:08.502Z,66.90
2023-05-12T12:45:36.869Z,66.50
2023-05-12T12:48:06.987Z,66.60
2023-05-12T12:50:36.666Z,66.90
2023-05-12T12:53:04.856Z,66.90
2023-05-12T12:55:32.950Z,67.50
2023-05-12T12:58:02.438Z,67.00
2023-05-12T13:00:31.090Z,66.50
2023-05-12T13:03:00.810Z,66.40
2023-05-12T13:05:29.138Z,66.20
2023-05-12T13:07:57.243Z,64.80
2023-05-12T13:10:25.906Z,65.10
2023-05-12T13:12:54.006Z,64.70
2023-05-12T13:15:24.033Z,63.90
2023-05-12T13:17:52.506Z,63.80
2023-05-12T13:20:21.083Z,64.40
2023-05-12T13:22:49.384Z,65.30
2023-05-12T13:25:18.127Z,64.50
2023-05-12T13:27:46.394Z,64.80
2023-05-12T13:30:14.921Z,65.20
2023-05-12T13:32:44.519Z,64.90
2023-05-12T13:35:12.637Z,65.00
2023-05-12T13:37:40.706Z,65.00
2023-05-12T13:40:10.512Z,64.70
2023-05-12T13:42:38.609Z,63.40
2023-05-12T13:45:09.169Z,64.50
2023-05-12T13:47:37.692Z,64.50
2023-05-12T13:50:08.319Z,64.20
2023-05-12T13:52:36.950Z,63.30
2023-05-12T13:55:05.372Z,64.10
2023-05-12T13:57:33.821Z,63.80
2023-05-12T14:00:02.083Z,63.80
2023-05-12T14:02:30.274Z,62.90
2023-05-12T14:04:58.532Z,63.10
2023-05-12T14:07:29.059Z,64.00
2023-05-12T14:09:57.327Z,63.50
2023-05-12T14:12:25.894Z,63.40
2023-05-12T14:14:54.759Z,63.10
2023-05-12T14:17:26.288Z,62.10
2023-05-12T14:19:54.441Z,62.10
2023-05-12T14:22:26.493Z,61.50
2023-05-12T14:24:56.678Z,60.90
2023-05-12T14:27:24.954Z,59.80
2023-05-12T14:29:53.108Z,59.80
2023-05-12T14:32:21.284Z,58.90
2023-05-12T14:34:49.397Z,58.20
2023-05-12T14:37:17.571Z,57.90
2023-05-12T14:39:45.643Z,58.00
2023-05-12T14:42:15.154Z,57.50
2023-05-12T14:44:43.475Z,57.70
2023-05-12T14:47:11.593Z,58.20
2023-05-12T14:49:39.671Z,58.60
2023-05-12T14:52:08.330Z,58.90
2023-05-12T14:54:36.451Z,58.80
2023-05-12T14:57:05.236Z,59.20
2023-05-12T14:59:34.842Z,60.10
2023-05-12T15:02:03.013Z,60.40
2023-05-12T15:04:31.671Z,60.80
2023-05-12T15:06:59.753Z,61.20
2023-05-12T15:09:27.858Z,61.60
2023-05-12T15:11:56.495Z,62.10
2023-05-12T15:16:59.503Z,63.00
2023-05-12T15:19:28.139Z,63.30
2023-05-12T15:21:56.238Z,63.70
2023-05-12T15:24:24.319Z,63.60
2023-05-12T15:26:52.398Z,64.00
2023-05-12T15:29:20.747Z,64.30
2023-05-12T15:31:49.483Z,64.50
2023-05-12T15:34:19.147Z,64.50
2023-05-12T15:36:48.854Z,64.80
2023-05-12T15:39:17.033Z,65.30
2023-05-12T15:41:45.411Z,65.50
2023-05-12T15:44:13.523Z,66.10
2023-05-12T15:46:41.636Z,66.60
2023-05-12T15:49:10.168Z,66.80
2023-05-12T15:51:39.652Z,66.80
2023-05-12T15:54:09.376Z,66.70
2023-05-12T15:56:38.837Z,66.70
2023-05-12T15:59:07.449Z,66.60
2023-05-12T16:01:35.665Z,66.50
2023-05-12T16:04:03.916Z,66.60
2023-05-12T16:06:32.019Z,66.50
2023-05-12T16:09:01.569Z,66.20
2023-05-12T16:11:29.837Z,66.30
2023-05-12T16:13:58.925Z,66.40
2023-05-12T16:16:27.326Z,66.40
2023-05-12T16:18:55.525Z,66.30
2023-05-12T16:21:23.936Z,66.50
2023-05-12T16:23:52.045Z,66.60
2023-05-12T16:26:21.871Z,66.50
2023-05-12T16:28:49.940Z,66.50
2023-05-12T16:31:19.692Z,66.60
2023-05-12T16:33:47.832Z,66.60
2023-05-12T16:36:17.758Z,66.60
2023-05-12T16:38:45.933Z,66.60
2023-05-12T16:41:14.005Z,67.40
2023-05-12T16:43:43.500Z,66.70
2023-05-12T16:46:11.897Z,66.80
2023-05-12T16:48:40.057Z,67.10
2023-05-12T16:51:10.175Z,67.80
2023-05-12T16:53:38.619Z,68.20
2023-05-12T16:56:07.249Z,68.30
2023-05-12T16:58:35.696Z,68.20
2023-05-12T17:01:05.447Z,68.50
2023-05-12T17:03:33.719Z,68.50
2023-05-12T17:06:01.884Z,68.40
2023-05-12T17:08:29.933Z,68.40
2023-05-12T17:10:58.037Z,68.30
2023-05-12T17:13:26.213Z,67.90
2023-05-12T17:15:54.600Z,67.90
2023-05-12T17:18:24.868Z,67.90
2023-05-12T17:20:53.309Z,67.70
2023-05-12T17:23:21.595Z,67.50
2023-05-12T17:25:49.739Z,67.50
2023-05-12T17:28:17.813Z,67.20
2023-05-12T17:30:45.889Z,67.40
2023-05-12T17:33:15.514Z,67.30
2023-05-12T17:35:56.491Z,67.20
2023-05-12T17:38:34.765Z,66.90
2023-05-12T17:41:02.853Z,67.20
2023-05-12T17:43:31.646Z,67.10
2023-05-12T17:46:00.530Z,67.00
2023-05-12T17:48:32.984Z,67.00
2023-05-12T17:51:03.295Z,66.90
2023-05-12T17:53:32.297Z,66.40
2023-05-12T17:56:00.789Z,66.20
2023-05-12T17:58:28.974Z,66.20
2023-05-12T18:00:57.179Z,66.30
2023-05-12T18:03:25.348Z,66.40
2023-05-12T18:05:55.227Z,66.20
2023-05-12T18:08:24.730Z,66.00
2023-05-12T18:10:52.824Z,65.80
2023-05-12T18:13:20.935Z,66.00
2023-05-12T18:15:50.061Z,66.00
2023-05-12T18:18:18.704Z,65.90
2023-05-12T18:20:46.868Z,65.80
2023-05-12T18:23:14.975Z,66.00
2023-05-12T18:25:44.547Z,66.00
2023-05-12T18:28:12.670Z,65.70
2023-05-12T18:30:41.446Z,65.80
2023-05-12T18:33:09.627Z,66.10
2023-05-12T18:35:37.724Z,66.20
2023-05-12T18:38:07.100Z,66.20
2023-05-12T18:40:35.303Z,66.00
2023-05-12T18:43:04.825Z,66.30
2023-05-12T18:45:33.059Z,66.40
2023-05-12T18:48:01.208Z,66.30
2023-05-12T18:50:29.363Z,66.30
2023-05-12T18:52:57.532Z,66.50
2023-05-12T18:55:25.833Z,66.50
2023-05-12T18:57:53.949Z,66.60
2023-05-12T19:00:26.102Z,66.80
2023-05-12T19:02:54.558Z,66.80
2023-05-12T19:05:23.025Z,67.00
2023-05-12T19:07:51.655Z,67.20
2023-05-12T19:10:20.167Z,67.20
2023-05-12T19:12:50.007Z,67.20
2023-05-12T19:15:18.580Z,67.30
2023-05-12T19:17:49.257Z,67.40
2023-05-12T19:20:17.606Z,67.50
2023-05-12T19:22:46.574Z,67.30
2023-05-12T19:25:17.832Z,67.40
2023-05-12T19:27:46.370Z,67.50
2023-05-12T19:30:15.763Z,67.50
2023-05-12T19:32:45.994Z,67.60
2023-05-12T19:35:17.328Z,67.70
2023-05-12T19:37:45.604Z,68.00
2023-05-12T19:40:14.014Z,68.20
2023-05-12T19:42:42.566Z,68.90
2023-05-12T19:45:11.610Z,68.30
2023-05-12T19:47:39.857Z,68.60
2023-05-12T19:50:09.628Z,68.70
2023-05-12T19:52:39.213Z,69.00
2023-05-12T19:55:08.488Z,69.10
2023-05-12T19:57:37.526Z,69.30
2023-05-12T20:00:06.698Z,69.50
2023-05-12T20:02:34.895Z,69.80
2023-05-12T20:05:03.072Z,69.90
2023-05-12T20:07:31.320Z,69.80
2023-05-12T20:10:01.054Z,70.00
2023-05-12T20:12:29.217Z,70.50
2023-05-12T20:14:57.298Z,70.60
2023-05-12T20:17:25.512Z,70.70
2023-05-12T20:19:53.577Z,71.00
2023-05-12T20:22:22.459Z,71.20
2023-05-12T20:24:51.298Z,71.40
2023-05-12T20:27:20.735Z,71.60
2023-05-12T20:29:49.465Z,71.90
2023-05-12T20:32:17.559Z,72.70
2023-05-12T20:34:45.616Z,72.20
2023-05-12T20:37:15.047Z,72.40
2023-05-12T20:39:43.325Z,72.70
2023-05-12T20:42:11.507Z,72.90
2023-05-12T20:44:40.975Z,73.00
2023-05-12T20:47:09.649Z,73.20
2023-05-12T20:49:37.839Z,73.20
2023-05-12T20:52:07.779Z,73.20
2023-05-12T20:54:35.836Z,73.20
2023-05-12T20:57:03.914Z,73.10
2023-05-12T20:59:32.018Z,73.20
2023-05-12T21:02:01.508Z,73.20
2023-05-12T21:04:29.617Z,73.50
2023-05-12T21:06:57.681Z,73.60
2023-05-12T21:09:25.811Z,73.70
2023-05-12T21:11:53.871Z,73.80
2023-05-12T21:14:22.245Z,73.80
2023-05-12T21:16:50.340Z,74.00
2023-05-12T21:19:19.806Z,74.00
2023-05-12T21:21:47.979Z,74.00
2023-05-12T21:24:17.518Z,73.90
2023-05-12T21:26:45.606Z,73.80
2023-05-12T21:29:13.652Z,73.90
2023-05-12T21:31:41.749Z,74.00
2023-05-12T21:34:09.877Z,74.10
2023-05-12T21:36:39.439Z,74.20
2023-05-12T21:39:07.647Z,74.30
2023-05-12T21:41:35.758Z,74.40
2023-05-12T21:44:04.049Z,74.50
2023-05-12T21:46:32.222Z,74.50
2023-05-12T21:49:00.333Z,74.50
2023-05-12T21:51:29.019Z,74.50
2023-05-12T21:53:58.466Z,74.60
2023-05-12T21:56:26.823Z,74.60
2023-05-12T21:58:54.914Z,74.60
2023-05-12T22:01:23.040Z,74.70
2023-05-12T22:03:51.295Z,74.80
2023-05-12T22:06:19.512Z,74.80
2023-05-12T22:08:47.618Z,74.90
2023-05-12T22:11:17.428Z,75.00
2023-05-12T22:13:45.610Z,75.10
2023-05-12T22:16:13.762Z,75.20
2023-05-12T22:18:43.525Z,75.20
2023-05-12T22:21:12.075Z,75.20
2023-05-12T22:23:41.789Z,75.30
2023-05-12T22:26:10.081Z,75.30
2023-05-12T22:28:39.569Z,75.40
2023-05-12T22:31:07.757Z,75.50
2023-05-12T22:33:36.121Z,75.60
2023-05-12T22:36:04.305Z,75.70
2023-05-12T22:38:32.391Z,75.80
2023-05-12T22:41:00.834Z,76.10
2023-05-12T22:43:29.168Z,76.40
2023-05-12T22:45:58.805Z,76.60
2023-05-12T22:48:27.182Z,76.90
2023-05-12T22:50:55.301Z,76.90
2023-05-12T22:53:23.405Z,77.00
2023-05-12T22:55:51.483Z,77.00
2023-05-12T22:58:19.560Z,77.00
2023-05-12T23:00:47.647Z,77.00
2023-05-12T23:03:17.164Z,77.00
2023-05-12T23:05:45.278Z,77.00
2023-05-12T23:08:13.436Z,76.90
2023-05-12T23:10:41.515Z,77.00
2023-05-12T23:13:09.861Z,77.20
2023-05-12T23:15:37.939Z,77.10
2023-05-12T23:18:06.137Z,77.20
2023-05-12T23:20:35.664Z,77.30
2023-05-12T23:23:03.749Z,77.40
2023-05-12T23:25:31.841Z,77.30
2023-05-12T23:27:59.938Z,77.40
2023-05-12T23:30:31.889Z,77.50
2023-05-12T23:33:00.074Z,77.40
2023-05-12T23:35:28.232Z,77.30
2023-05-12T23:37:57.730Z,77.20
2023-05-12T23:40:25.805Z,77.40
2023-05-12T23:42:53.902Z,77.60
2023-05-12T23:45:22.081Z,77.60
2023-05-12T23:47:50.352Z,77.50
2023-05-12T23:50:18.648Z,77.30
2023-05-12T23:52:46.867Z,77.30
2023-05-12T23:55:16.472Z,77.50
2023-05-12T23:57:44.534Z,77.70
